Time;durP1;ratioP1;P1;durP2;ratioP2;P2;SDS_P1;SDS_P2;PMS_P1;PMS_P2;Temp;Humidity;BMP_temperature;BMP_pressure;BME280_temperature;BME280_humidity;BME280_pressure;Samples;Min_cycle;Max_cycle;Signal;HPM_P1;HPM_P2
2022/06/01 00:01:36;;;;;;;4.23;3.83;;;11.10;99.90;10.40;100211;;;;591176;241;24105;-77
2022/06/01 00:04:08;;;;;;;6.73;4.27;;;11.20;99.90;10.40;100213;;;;593511;237;24048;-76
2022/06/01 00:06:32;;;;;;;4.40;4.00;;;11.20;99.90;10.40;100211;;;;584620;241;24056;-76
2022/06/01 00:08:59;;;;;;;7.17;4.30;;;11.20;99.90;10.40;100210;;;;594713;240;24042;-78
2022/06/01 00:11:27;;;;;;;5.90;4.30;;;11.20;99.90;10.40;100213;;;;596293;241;24115;-82
2022/06/01 00:13:56;;;;;;;5.13;4.63;;;11.20;99.90;10.50;100222;;;;595012;241;24089;-75
2022/06/01 00:16:24;;;;;;;7.67;4.77;;;11.20;99.90;10.50;100237;;;;594508;241;25087;-78
2022/06/01 00:18:52;;;;;;;4.77;3.90;;;11.20;99.90;10.50;100244;;;;584809;241;24040;-77
2022/06/01 00:21:20;;;;;;;5.47;4.63;;;11.30;99.90;10.60;100242;;;;594545;241;24053;-79
2022/06/01 00:23:48;;;;;;;6.00;4.70;;;11.20;99.90;10.60;100246;;;;594679;241;24055;-81
2022/06/01 00:26:16;;;;;;;7.93;4.60;;;11.30;99.90;10.60;100244;;;;585800;241;24189;-76
2022/06/01 00:28:48;;;;;;;8.20;4.70;;;11.30;99.90;10.60;100238;;;;593003;241;24075;-77
2022/06/01 00:31:13;;;;;;;7.60;5.27;;;11.30;99.90;10.60;100225;;;;589765;241;24050;-76
2022/06/01 00:33:43;;;;;;;8.07;5.73;;;11.30;99.90;10.60;100223;;;;584424;241;24053;-76
2022/06/01 00:36:10;;;;;;;7.50;5.37;;;11.30;99.90;10.60;100212;;;;590661;239;24049;-77
2022/06/01 00:38:36;;;;;;;9.73;6.07;;;11.30;99.90;10.60;100210;;;;593457;241;24138;-76
2022/06/01 00:41:08;;;;;;;6.10;5.17;;;11.40;99.90;10.70;100200;;;;584317;241;24081;-76
2022/06/01 00:43:44;;;;;;;6.80;5.00;;;11.40;99.90;10.70;100200;;;;583838;241;24090;-76
2022/06/01 00:46:10;;;;;;;7.00;6.13;;;11.30;99.90;10.60;100196;;;;592632;241;24129;-77
2022/06/01 00:48:39;;;;;;;7.47;6.00;;;11.40;99.90;10.60;100201;;;;592898;238;24075;-76
2022/06/01 00:51:07;;;;;;;6.90;5.30;;;11.30;99.90;10.60;100199;;;;592731;240;24058;-76
2022/06/01 00:53:34;;;;;;;9.83;5.90;;;11.30;99.90;10.60;100202;;;;590433;241;24091;-77
2022/06/01 00:56:05;;;;;;;6.43;5.53;;;11.30;99.90;10.60;100195;;;;592843;238;24121;-77
2022/06/01 00:58:36;;;;;;;8.80;5.70;;;11.30;99.90;10.60;100194;;;;582198;241;24086;-77
2022/06/01 01:01:04;;;;;;;6.93;6.23;;;11.30;99.90;10.60;100188;;;;592726;241;24054;-77
2022/06/01 01:03:36;;;;;;;6.97;6.27;;;11.30;99.90;10.60;100189;;;;584185;241;24101;-76
2022/06/01 01:06:18;;;;;;;9.20;5.50;;;11.30;99.90;10.60;100183;;;;593064;241;24077;-78
2022/06/01 01:08:50;;;;;;;7.37;5.23;;;11.30;99.90;10.50;100179;;;;569787;247;24128;-77
2022/06/01 01:11:14;;;;;;;7.93;5.53;;;11.30;99.90;10.50;100169;;;;584331;241;24055;-83
2022/06/01 01:13:42;;;;;;;8.30;6.57;;;11.20;99.90;10.50;100162;;;;593552;241;24438;-81
2022/06/01 01:16:10;;;;;;;6.10;5.60;;;11.20;99.90;10.50;100163;;;;593452;241;24123;-76
2022/06/01 01:18:38;;;;;;;9.50;6.17;;;11.20;99.90;10.50;100156;;;;584428;241;24098;-76
2022/06/01 01:21:30;;;;;;;6.83;6.03;;;11.20;99.90;10.50;100150;;;;593769;240;24068;-77
2022/06/01 01:24:15;;;;;;;7.00;6.03;;;11.20;99.90;10.50;100143;;;;591557;241;24056;-76
2022/06/01 01:26:43;;;;;;;5.63;5.07;;;11.20;99.90;10.50;100146;;;;585088;241;24053;-85
2022/06/01 01:29:12;;;;;;;8.33;6.23;;;11.20;99.90;10.50;100144;;;;593853;241;24064;-81
2022/06/01 01:31:40;;;;;;;6.57;5.83;;;11.20;99.90;10.50;100140;;;;584914;241;24052;-80
2022/06/01 01:34:08;;;;;;;6.07;5.43;;;11.20;99.90;10.50;100145;;;;582179;241;24123;-78
2022/06/01 01:36:41;;;;;;;6.93;5.87;;;11.20;99.90;10.50;100151;;;;593576;241;24060;-78
2022/06/01 01:39:12;;;;;;;8.37;6.33;;;11.20;99.90;10.50;100147;;;;592883;238;24243;-83
2022/06/01 01:41:45;;;;;;;6.80;6.20;;;11.20;99.90;10.50;100147;;;;593310;238;24078;-81
2022/06/01 01:44:22;;;;;;;5.50;5.00;;;11.20;99.90;10.50;100145;;;;584469;241;24073;-78
2022/06/01 01:46:52;;;;;;;6.90;5.77;;;11.20;99.90;10.50;100134;;;;584061;241;24072;-79
2022/06/01 01:49:21;;;;;;;7.80;5.97;;;11.20;99.90;10.60;100147;;;;584364;241;24074;-78
2022/06/01 01:51:46;;;;;;;7.03;6.33;;;11.20;99.90;10.60;100135;;;;594134;241;24049;-78
2022/06/01 01:54:45;;;;;;;7.23;6.33;;;11.30;99.90;10.50;100127;;;;594052;241;24046;-81
2022/06/01 01:57:33;;;;;;;7.53;6.70;;;11.30;99.90;10.60;100133;;;;593406;238;24138;-78
2022/06/01 02:00:07;;;;;;;7.70;6.90;;;11.20;99.90;10.50;100124;;;;592439;238;24090;-75
2022/06/01 02:02:40;;;;;;;11.50;7.27;;;11.20;99.90;10.50;100115;;;;593524;241;24111;-78
2022/06/01 02:08:26;;;;;;;8.10;7.30;;;11.30;99.90;10.60;100110;;;;583144;241;24073;-76
2022/06/01 02:13:46;;;;;;;7.40;6.70;;;11.30;99.90;10.60;100094;;;;586205;242;24072;-78
2022/06/01 02:16:14;;;;;;;9.17;7.83;;;11.20;99.90;10.50;100103;;;;577195;244;24086;-77
2022/06/01 02:18:38;;;;;;;6.97;6.27;;;11.20;99.90;10.50;100105;;;;592501;241;24071;-77
2022/06/01 02:21:07;;;;;;;9.17;7.10;;;11.20;99.90;10.50;100112;;;;592313;241;24117;-77
2022/06/01 02:23:34;;;;;;;9.40;7.07;;;11.20;99.90;10.40;100096;;;;592417;241;24082;-77
2022/06/01 02:26:02;;;;;;;9.53;7.70;;;11.20;99.90;10.40;100092;;;;582437;241;24043;-78
2022/06/01 02:28:34;;;;;;;8.50;7.63;;;11.10;99.90;10.40;100089;;;;592865;241;24067;-76
2022/06/01 02:30:58;;;;;;;10.17;8.00;;;11.10;99.90;10.30;100098;;;;592488;237;24096;-77
2022/06/01 02:33:26;;;;;;;8.13;6.43;;;11.00;99.90;10.30;100094;;;;594303;240;24108;-78
2022/06/01 02:35:54;;;;;;;8.93;7.27;;;11.00;99.90;10.30;100096;;;;594022;241;24067;-77
2022/06/01 02:38:25;;;;;;;10.83;8.13;;;11.00;99.90;10.30;100097;;;;593756;241;24056;-79
2022/06/01 02:40:54;;;;;;;9.73;8.73;;;11.00;99.90;10.30;100095;;;;593731;237;24068;-77
2022/06/01 02:43:22;;;;;;;11.70;8.23;;;11.00;99.90;10.30;100102;;;;584925;241;24097;-79
2022/06/01 02:45:49;;;;;;;8.87;7.97;;;11.00;99.90;10.30;100105;;;;584942;241;24056;-77
2022/06/01 02:48:17;;;;;;;8.50;7.80;;;11.00;99.90;10.40;100102;;;;593869;241;24129;-76
2022/06/01 02:50:48;;;;;;;9.07;7.50;;;11.10;99.90;10.40;100098;;;;584725;241;24073;-81
2022/06/01 02:53:13;;;;;;;9.70;8.23;;;11.10;99.90;10.40;100105;;;;593134;237;24064;-78
2022/06/01 02:55:41;;;;;;;9.40;7.73;;;11.10;99.90;10.30;100096;;;;593692;241;24106;-83
2022/06/01 02:58:09;;;;;;;9.47;7.50;;;11.10;99.90;10.40;100094;;;;593961;237;24098;-78
2022/06/01 03:00:40;;;;;;;8.50;7.43;;;11.10;99.90;10.40;100084;;;;593654;241;24085;-80
2022/06/01 03:03:08;;;;;;;8.83;7.90;;;11.10;99.90;10.40;100083;;;;593094;238;24069;-78
2022/06/01 03:05:34;;;;;;;9.53;7.87;;;11.10;99.90;10.40;100085;;;;584315;241;24128;-79
2022/06/01 03:08:06;;;;;;;8.13;7.43;;;11.10;99.90;10.40;100079;;;;592934;241;24093;-78
2022/06/01 03:10:30;;;;;;;9.27;7.20;;;11.10;99.90;10.40;100059;;;;582893;241;24096;-78
2022/06/01 03:12:58;;;;;;;8.13;7.20;;;11.10;99.90;10.40;100057;;;;593841;241;24064;-78
2022/06/01 03:15:26;;;;;;;9.33;7.67;;;11.10;99.90;10.40;100063;;;;593746;241;24062;-76
2022/06/01 03:17:54;;;;;;;8.70;7.33;;;11.10;99.90;10.40;100079;;;;584573;241;24064;-78
2022/06/01 03:20:22;;;;;;;8.03;7.23;;;11.10;99.90;10.40;100076;;;;584549;241;24069;-76
2022/06/01 03:22:50;;;;;;;7.93;7.13;;;11.20;99.90;10.40;100081;;;;593222;241;24142;-78
2022/06/01 03:25:18;;;;;;;10.43;7.47;;;11.10;99.90;10.40;100076;;;;593181;241;24065;-76
2022/06/01 03:27:46;;;;;;;8.80;7.37;;;11.10;99.90;10.40;100069;;;;592859;241;24047;-77
2022/06/01 03:30:17;;;;;;;10.27;8.07;;;11.10;99.90;10.40;100077;;;;593164;241;24048;-80
2022/06/01 03:32:43;;;;;;;8.73;7.77;;;11.10;99.90;10.40;100081;;;;592890;241;24062;-77
2022/06/01 03:35:09;;;;;;;8.97;8.17;;;11.10;99.90;10.40;100082;;;;584225;241;24092;-77
2022/06/01 03:37:37;;;;;;;9.70;7.43;;;11.10;99.90;10.30;100079;;;;590445;241;24054;-76
2022/06/01 03:40:05;;;;;;;8.67;7.50;;;11.10;99.90;10.30;100082;;;;593518;241;24056;-78
2022/06/01 03:42:33;;;;;;;10.03;7.80;;;11.10;99.90;10.30;100076;;;;584449;241;24064;-82
2022/06/01 03:47:48;;;;;;;9.30;8.07;;;11.00;99.90;10.30;100081;;;;591256;241;24113;-78
2022/06/01 03:50:16;;;;;;;9.60;8.53;;;11.00;99.90;10.20;100081;;;;594051;241;24057;-79
2022/06/01 03:52:43;;;;;;;8.00;7.20;;;11.00;99.90;10.30;100077;;;;594099;241;24065;-82
2022/06/01 03:55:13;;;;;;;10.07;8.20;;;11.00;99.90;10.30;100067;;;;590641;241;24069;-77
2022/06/01 03:57:39;;;;;;;8.60;7.57;;;11.00;99.90;10.30;100062;;;;584672;241;24065;-80
2022/06/01 04:00:07;;;;;;;8.03;7.23;;;11.00;99.90;10.40;100069;;;;584609;241;24088;-77
2022/06/01 04:02:37;;;;;;;6.63;5.93;;;11.10;99.90;10.40;100057;;;;582499;241;24068;-79
2022/06/01 04:05:03;;;;;;;6.97;6.27;;;11.20;99.90;10.50;100058;;;;594734;241;24100;-78
2022/06/01 04:07:31;;;;;;;7.43;5.97;;;11.20;99.90;10.60;100063;;;;593538;241;24105;-83
2022/06/01 04:09:58;;;;;;;6.83;6.20;;;11.30;99.90;10.70;100062;;;;593632;241;25102;-79
2022/06/01 04:12:26;;;;;;;7.30;5.73;;;11.40;99.90;10.80;100064;;;;593976;241;24041;-78
2022/06/01 04:14:54;;;;;;;8.77;6.00;;;11.50;99.90;10.90;100051;;;;594115;241;24088;-76
2022/06/01 04:17:22;;;;;;;7.53;6.83;;;11.60;99.90;10.90;100057;;;;593883;241;24074;-81
2022/06/01 04:19:50;;;;;;;7.50;5.53;;;11.60;99.90;11.00;100063;;;;583408;241;24053;-76
2022/06/01 04:22:18;;;;;;;6.17;5.67;;;11.70;99.90;11.10;100069;;;;593653;241;24062;-77
2022/06/01 04:24:46;;;;;;;5.53;5.13;;;11.80;99.90;11.20;100059;;;;592899;241;24075;-77
2022/06/01 04:27:15;;;;;;;6.03;5.50;;;11.90;99.90;11.20;100065;;;;584267;241;24069;-77
2022/06/01 04:29:43;;;;;;;6.23;5.73;;;12.00;99.90;11.30;100063;;;;584161;241;24216;-76
2022/06/01 04:32:12;;;;;;;7.83;5.67;;;12.00;99.90;11.30;100065;;;;593250;241;24090;-77
2022/06/01 04:34:40;;;;;;;5.87;5.37;;;12.00;99.90;11.40;100063;;;;592782;238;24068;-77
2022/06/01 04:37:08;;;;;;;21.97;5.20;;;12.10;99.90;11.60;100062;;;;590958;239;24168;-77
2022/06/01 04:39:36;;;;;;;5.67;4.87;;;12.30;99.90;11.80;100049;;;;593201;241;24054;-76
2022/06/01 04:42:07;;;;;;;6.10;5.50;;;12.40;99.90;12.00;100039;;;;593841;241;24056;-74
2022/06/01 04:44:32;;;;;;;7.00;6.10;;;12.70;99.90;12.40;100048;;;;584171;241;24090;-77
2022/06/01 04:46:59;;;;;;;5.87;5.00;;;13.00;99.90;12.90;100041;;;;593428;241;24086;-76
2022/06/01 04:49:27;;;;;;;5.03;4.63;;;13.50;99.90;13.70;100065;;;;594458;241;24088;-79
2022/06/01 04:51:55;;;;;;;5.10;4.70;;;14.20;99.90;14.30;100046;;;;595244;241;24083;-79
2022/06/01 04:54:23;;;;;;;4.30;3.97;;;14.90;99.90;15.10;100033;;;;594887;241;25138;-76
2022/06/01 04:56:51;;;;;;;3.60;3.33;;;15.70;99.90;16.30;100040;;;;595855;239;24096;-76
2022/06/01 04:59:19;;;;;;;4.37;3.50;;;16.70;99.90;17.50;100041;;;;595424;241;24154;-76
2022/06/01 05:01:48;;;;;;;3.83;3.53;;;19.30;99.90;18.80;100039;;;;595227;241;24070;-77
2022/06/01 05:04:15;;;;;;;3.77;3.47;;;19.30;99.90;19.30;100048;;;;595101;241;24075;-76
2022/06/01 05:06:43;;;;;;;10.27;8.33;;;20.20;99.90;19.30;100041;;;;595000;241;24139;-76
2022/06/01 05:09:12;;;;;;;3.73;3.43;;;20.20;99.90;19.30;100039;;;;594870;241;24050;-77
2022/06/01 05:11:40;;;;;;;3.60;3.30;;;20.20;99.90;19.80;100048;;;;595041;241;24066;-76
2022/06/01 05:14:08;;;;;;;3.70;3.40;;;20.60;99.90;20.60;100043;;;;595178;241;24058;-76
2022/06/01 05:16:36;;;;;;;3.47;3.17;;;21.30;99.90;21.80;100045;;;;595044;241;23098;-78
2022/06/01 05:19:04;;;;;;;3.00;2.80;;;23.30;99.90;22.60;100050;;;;595076;241;24067;-77
2022/06/01 05:21:32;;;;;;;3.43;3.00;;;23.20;99.90;23.00;100051;;;;595062;241;24097;-78
2022/06/01 05:24:00;;;;;;;3.23;2.93;;;23.90;99.90;23.90;100046;;;;595073;241;24112;-80
2022/06/01 05:26:29;;;;;;;2.90;2.70;;;25.30;94.60;24.50;100057;;;;595103;241;24068;-77
2022/06/01 05:28:57;;;;;;;2.57;2.43;;;25.20;94.50;23.90;100050;;;;594543;241;24084;-80
2022/06/01 05:31:24;;;;;;;2.97;2.57;;;25.10;92.10;23.70;100050;;;;594604;241;24070;-76
2022/06/01 05:33:55;;;;;;;2.80;2.60;;;24.80;91.80;23.90;100058;;;;594318;241;24159;-79
2022/06/01 05:36:20;;;;;;;3.17;2.60;;;25.00;91.80;24.90;100059;;;;594201;241;24047;-78
2022/06/01 05:38:48;;;;;;;2.83;2.63;;;25.70;90.20;26.00;100064;;;;594235;241;24061;-77
2022/06/01 05:41:16;;;;;;;3.27;2.03;;;26.70;85.40;26.50;100066;;;;594397;241;24062;-76
2022/06/01 05:43:45;;;;;;;2.30;2.20;;;27.40;80.40;26.70;100061;;;;594303;241;23149;-77
2022/06/01 05:46:12;;;;;;;2.20;2.10;;;27.70;76.40;26.40;100059;;;;594168;241;23083;-77
2022/06/01 05:48:40;;;;;;;3.33;2.03;;;27.60;74.00;25.20;100063;;;;594353;241;24047;-83
2022/06/01 05:51:07;;;;;;;2.60;2.40;;;26.70;74.60;23.90;100076;;;;594159;241;23104;-82
2022/06/01 05:53:36;;;;;;;3.40;2.33;;;24.20;81.70;22.70;100081;;;;594362;241;23094;-78
2022/06/01 05:56:04;;;;;;;2.50;2.40;;;24.10;81.60;22.30;100077;;;;594095;241;23097;-76
2022/06/01 05:58:35;;;;;;;2.83;2.50;;;23.50;84.20;21.70;100078;;;;594326;241;24071;-77
2022/06/01 06:01:03;;;;;;;4.23;2.57;;;22.80;87.40;22.30;100070;;;;593944;237;24058;-77
2022/06/01 06:03:30;;;;;;;2.73;2.20;;;22.90;90.40;24.20;100065;;;;594144;241;24079;-79
2022/06/01 06:06:17;;;;;;;2.23;2.10;;;24.40;85.40;25.30;100064;;;;594433;241;24071;-80
2022/06/01 06:08:56;;;;;;;2.20;2.00;;;25.70;80.70;25.20;100074;;;;595484;240;24034;-78
2022/06/01 06:11:25;;;;;;;3.83;2.73;;;26.20;76.40;25.50;100065;;;;595605;241;24085;-78
2022/06/01 06:13:52;;;;;;;2.90;2.10;;;26.20;76.40;25.90;100059;;;;595061;237;23084;-77
2022/06/01 06:16:20;;;;;;;2.37;2.17;;;26.60;75.70;27.20;100051;;;;595539;241;24050;-77
2022/06/01 06:18:50;;;;;;;2.10;2.00;;;27.70;74.10;27.50;100053;;;;595301;241;24068;-76
2022/06/01 06:21:16;;;;;;;2.10;1.90;;;28.30;69.20;27.60;100064;;;;595199;241;23073;-77
2022/06/01 06:23:44;;;;;;;1.67;1.57;;;28.40;67.40;26.80;100060;;;;595292;241;23111;-78
2022/06/01 06:26:12;;;;;;;4.90;2.20;;;28.00;67.00;25.90;100073;;;;595096;241;23090;-79
2022/06/01 06:28:40;;;;;;;2.37;2.17;;;27.20;68.70;24.90;100060;;;;594777;241;23091;-77
2022/06/01 06:31:07;;;;;;;2.30;2.10;;;26.30;70.00;23.90;100063;;;;594996;241;24043;-79
2022/06/01 06:33:35;;;;;;;4.60;2.70;;;25.30;72.70;22.70;100065;;;;595023;241;24120;-77
2022/06/01 06:36:03;;;;;;;2.63;2.40;;;24.20;76.20;21.60;100058;;;;595047;241;24082;-75
2022/06/01 06:38:32;;;;;;;2.70;2.47;;;22.30;83.60;21.10;100069;;;;589612;241;35056;-78
2022/06/01 06:41:03;;;;;;;2.57;2.20;;;22.30;83.60;20.60;100059;;;;594975;241;24135;-75
2022/06/01 06:43:28;;;;;;;2.30;2.10;;;21.70;85.60;20.00;100064;;;;594529;241;24109;-77
2022/06/01 06:45:58;;;;;;;3.67;2.13;;;21.10;88.50;19.90;100055;;;;594777;241;23090;-75
2022/06/01 06:48:26;;;;;;;2.83;2.43;;;20.70;90.50;19.50;100040;;;;593988;240;24083;-77
2022/06/01 06:50:58;;;;;;;3.03;2.30;;;20.40;90.70;19.20;100044;;;;594227;237;24098;-76
2022/06/01 06:53:22;;;;;;;3.53;2.30;;;20.10;91.60;18.90;100029;;;;593655;241;24051;-76
2022/06/01 06:55:50;;;;;;;2.40;2.30;;;19.80;92.70;19.40;100035;;;;594469;241;24058;-76
2022/06/01 06:58:22;;;;;;;2.40;2.20;;;21.40;91.70;21.20;100032;;;;594320;240;24070;-75
2022/06/01 07:00:47;;;;;;;2.17;1.80;;;21.40;91.70;22.50;100036;;;;593889;237;24110;-76
2022/06/01 07:03:17;;;;;;;4.17;2.57;;;22.60;90.00;23.00;100031;;;;594431;241;24104;-77
2022/06/01 07:08:28;;;;;;;2.50;2.33;;;23.70;84.10;22.50;100025;;;;594124;241;24066;-76
2022/06/01 07:10:59;;;;;;;3.90;2.60;;;23.40;83.00;21.90;100030;;;;594680;241;24055;-76
2022/06/01 07:13:27;;;;;;;2.20;2.10;;;22.80;85.40;22.80;100026;;;;594398;241;24067;-77
2022/06/01 07:16:03;;;;;;;2.50;2.30;;;23.30;85.80;23.10;100019;;;;594152;241;24080;-77
2022/06/01 07:18:31;;;;;;;2.40;2.30;;;23.70;83.40;24.10;100014;;;;595022;240;24073;-80
2022/06/01 07:21:00;;;;;;;2.33;2.23;;;25.50;77.60;25.00;100024;;;;595869;241;24045;-78
2022/06/01 07:23:27;;;;;;;2.53;2.43;;;25.40;77.50;24.70;100020;;;;595549;241;24058;-83
2022/06/01 07:25:59;;;;;;;3.13;2.70;;;25.50;75.70;24.20;100005;;;;595220;241;24122;-78
2022/06/01 07:28:27;;;;;;;2.60;2.40;;;25.20;75.80;24.50;100008;;;;594935;241;24105;-83
2022/06/01 07:30:58;;;;;;;2.83;2.57;;;25.30;76.60;24.10;100001;;;;595019;241;24063;-78
2022/06/01 07:33:23;;;;;;;3.13;2.60;;;25.10;76.10;23.80;100003;;;;593993;241;24081;-79
2022/06/01 07:35:52;;;;;;;3.13;2.73;;;24.50;78.20;23.60;100000;;;;594766;241;24064;-77
2022/06/01 07:43:55;;;;;;;3.47;3.27;;;23.90;78.70;23.00;99994;;;;595349;241;24050;-84
2022/06/01 07:46:19;;;;;;;4.80;2.93;;;23.70;81.30;23.50;99995;;;;594625;241;24074;-85
2022/06/01 07:48:49;;;;;;;2.90;2.70;;;24.10;78.90;23.10;99991;;;;594782;241;24084;-83
2022/06/01 07:51:18;;;;;;;2.80;2.60;;;24.00;78.70;23.10;100002;;;;594829;237;24094;-85
2022/06/01 07:53:47;;;;;;;2.53;2.33;;;23.90;79.30;22.80;100004;;;;594581;237;24096;-81
2022/06/01 07:56:11;;;;;;;3.80;3.03;;;23.70;79.90;22.20;100002;;;;594043;241;24084;-82
2022/06/01 07:58:39;;;;;;;24.30;5.53;;;22.60;82.50;21.40;99993;;;;594454;241;24078;-84
2022/06/01 08:01:07;;;;;;;5.87;3.77;;;22.50;82.40;20.90;99998;;;;594535;241;24082;-80
2022/06/01 08:03:35;;;;;;;4.17;3.77;;;21.90;85.50;20.40;99994;;;;594592;241;24099;-84
2022/06/01 08:06:06;;;;;;;3.50;3.20;;;21.40;87.10;19.90;99999;;;;594568;241;24101;-85
2022/06/01 08:08:32;;;;;;;3.10;2.87;;;20.30;91.20;19.50;99986;;;;594428;241;24035;-81
2022/06/01 08:11:00;;;;;;;2.87;2.67;;;20.30;91.20;19.30;99991;;;;595019;241;23090;-83
2022/06/01 08:13:27;;;;;;;3.63;3.30;;;20.00;92.00;19.30;99988;;;;595002;241;24068;-80
2022/06/01 08:15:57;;;;;;;5.80;3.60;;;19.90;92.70;19.20;99991;;;;595025;241;24281;-79
2022/06/01 08:18:25;;;;;;;3.23;2.93;;;19.90;93.10;19.10;99984;;;;594691;241;24132;-83
2022/06/01 08:20:56;;;;;;;2.90;2.70;;;19.70;93.70;18.90;99989;;;;594641;241;24058;-83
2022/06/01 08:23:23;;;;;;;3.00;2.80;;;19.60;94.20;18.60;99981;;;;594216;241;24101;-84
2022/06/01 08:25:51;;;;;;;6.00;2.97;;;19.40;94.80;18.40;99977;;;;594625;237;24059;-78
2022/06/01 08:28:19;;;;;;;3.47;3.10;;;19.10;95.90;18.20;99989;;;;594534;241;24069;-82
2022/06/01 08:30:51;;;;;;;4.97;3.13;;;18.90;97.30;18.20;99979;;;;595846;240;24097;-82
2022/06/01 08:33:19;;;;;;;3.67;3.23;;;18.80;98.30;18.20;99977;;;;595601;241;24078;-78
2022/06/01 08:35:47;;;;;;;3.50;3.20;;;18.80;99.00;18.50;99974;;;;595339;241;24090;-81
2022/06/01 08:38:15;;;;;;;3.13;2.90;;;19.00;99.40;18.90;99973;;;;595285;241;23093;-77
2022/06/01 08:41:04;;;;;;;3.73;2.90;;;19.40;99.60;19.20;99978;;;;594916;241;24124;-78
2022/06/01 08:43:32;;;;;;;2.90;2.70;;;19.80;99.10;19.50;99980;;;;594931;241;24060;-77
2022/06/01 08:45:59;;;;;;;3.40;3.10;;;20.00;98.00;19.50;99975;;;;594427;241;24074;-78
2022/06/01 08:48:30;;;;;;;5.93;3.03;;;20.10;97.80;19.50;99969;;;;595417;237;24070;-76
2022/06/01 08:51:01;;;;;;;4.63;2.83;;;20.10;97.80;20.20;99972;;;;594314;241;24078;-83
2022/06/01 08:53:26;;;;;;;5.13;2.77;;;20.60;97.60;21.60;99962;;;;594967;241;24073;-77
2022/06/01 08:56:00;;;;;;;3.30;2.63;;;24.20;94.40;24.20;99963;;;;595120;241;24120;-77
2022/06/01 08:58:31;;;;;;;3.77;2.60;;;24.10;94.40;26.90;99960;;;;594286;237;24051;-79
2022/06/01 09:01:02;;;;;;;5.10;2.90;;;26.90;87.00;28.80;99966;;;;595311;237;24076;-83
2022/06/01 09:03:50;;;;;;;6.03;3.50;;;29.10;75.00;28.70;99964;;;;594713;237;24066;-82
2022/06/01 09:06:27;;;;;;;8.73;3.20;;;29.70;68.30;27.80;99960;;;;593379;241;23080;-79
2022/06/01 09:09:06;;;;;;;4.23;2.83;;;29.10;68.30;27.50;99963;;;;595239;241;23078;-85
2022/06/01 09:11:34;;;;;;;5.57;3.10;;;28.70;68.30;27.40;99959;;;;595073;237;23067;-83
2022/06/01 09:14:14;;;;;;;3.77;3.23;;;28.40;68.70;27.20;99963;;;;595660;241;23068;-80
2022/06/01 09:16:42;;;;;;;3.50;2.70;;;28.20;67.60;26.50;99958;;;;595763;241;24101;-76
2022/06/01 09:19:11;;;;;;;3.83;3.13;;;27.70;68.00;25.50;99953;;;;595221;241;23097;-77
2022/06/01 09:24:24;;;;;;;4.53;3.00;;;25.80;71.10;23.80;99944;;;;595201;241;23084;-83
2022/06/01 09:26:54;;;;;;;12.23;3.47;;;24.90;73.80;23.30;99948;;;;594989;241;24039;-83
2022/06/01 09:29:22;;;;;;;7.00;3.00;;;24.20;75.60;23.00;99943;;;;594903;237;24070;-81
2022/06/01 09:31:50;;;;;;;6.23;3.50;;;23.70;77.30;22.70;99940;;;;594718;241;23097;-86
2022/06/01 09:34:27;;;;;;;4.90;3.30;;;23.40;79.00;22.40;99939;;;;595137;241;24103;-81
2022/06/01 09:36:55;;;;;;;3.93;3.50;;;22.60;83.80;21.90;99942;;;;591119;241;24044;-82
2022/06/01 09:39:23;;;;;;;8.07;3.97;;;22.60;83.80;21.70;99934;;;;594634;241;24097;-81
2022/06/01 09:41:55;;;;;;;6.47;4.43;;;22.20;86.40;21.30;99936;;;;595732;239;24076;-76
2022/06/01 09:44:19;;;;;;;7.97;4.43;;;21.90;88.40;21.00;99929;;;;595584;241;24051;-76
2022/06/01 09:46:53;;;;;;;3.90;3.50;;;21.50;90.20;20.80;99921;;;;594944;237;24079;-82
2022/06/01 09:49:42;;;;;;;5.37;3.07;;;21.30;91.00;20.80;99919;;;;595448;241;24073;-83
2022/06/01 09:52:09;;;;;;;7.60;3.53;;;21.20;91.60;20.80;99919;;;;593668;241;24123;-81
2022/06/01 09:54:40;;;;;;;5.10;2.90;;;21.30;91.80;20.80;99922;;;;594238;241;24093;-79
2022/06/01 09:57:19;;;;;;;3.83;3.07;;;21.30;91.80;20.80;99917;;;;595176;237;24073;-86
2022/06/01 10:08:19;;;;;;;6.83;4.80;;;21.00;93.60;20.40;99917;;;;594861;241;24121;-77
2022/06/01 10:11:02;;;;;;;5.50;3.70;;;20.90;94.30;20.40;99903;;;;594514;237;24048;-77
2022/06/01 10:13:33;;;;;;;3.77;3.40;;;20.90;94.60;20.50;99909;;;;594675;241;23091;-76
2022/06/01 10:16:00;;;;;;;4.80;4.20;;;21.00;94.50;20.70;99899;;;;594562;237;24050;-83
2022/06/01 10:18:28;;;;;;;5.80;3.77;;;21.10;94.90;21.40;99902;;;;593579;241;23102;-80
2022/06/01 10:21:08;;;;;;;7.77;5.63;;;21.70;95.00;22.40;99890;;;;594176;241;24051;-79
2022/06/01 10:23:50;;;;;;;5.37;3.33;;;22.60;94.20;23.50;99886;;;;594390;238;23111;-81
2022/06/01 10:26:27;;;;;;;7.03;3.87;;;23.80;91.70;24.10;99885;;;;594826;241;24062;-84
2022/06/01 10:29:03;;;;;;;5.33;4.30;;;24.50;90.20;24.40;99876;;;;593770;241;24050;-81
2022/06/01 10:31:43;;;;;;;5.93;4.30;;;24.90;86.00;24.40;99868;;;;594192;241;24085;-82
2022/06/01 10:34:48;;;;;;;8.77;4.67;;;25.10;82.60;24.30;99864;;;;592617;237;23119;-80
2022/06/01 10:37:43;;;;;;;4.10;3.27;;;25.10;82.60;24.20;99857;;;;594344;241;24059;-79
2022/06/01 10:40:13;;;;;;;5.07;3.73;;;25.00;83.30;24.10;99863;;;;594431;241;24094;-76
2022/06/01 10:46:00;;;;;;;4.40;4.00;;;24.60;84.20;23.90;99855;;;;594582;241;24131;-82
2022/06/01 10:48:31;;;;;;;5.00;3.57;;;24.50;85.00;23.80;99855;;;;576104;244;24158;-82
2022/06/01 10:51:19;;;;;;;3.78;3.45;;;24.40;84.40;23.60;99863;;;;583140;241;35233;-81
2022/06/01 10:54:08;;;;;;;5.77;3.93;;;24.30;85.00;23.20;99858;;;;595077;237;23078;-82
2022/06/01 10:56:36;;;;;;;5.57;3.67;;;23.90;85.20;23.00;99864;;;;595369;241;24053;-82
2022/06/01 10:59:08;;;;;;;5.53;3.47;;;23.70;86.80;23.10;99866;;;;595364;241;24050;-80
2022/06/01 11:01:46;;;;;;;4.10;3.67;;;23.60;87.30;23.30;99863;;;;595056;241;24080;-79
2022/06/01 11:04:52;;;;;;;4.43;3.73;;;24.20;86.30;23.70;99867;;;;594922;241;24062;-81
2022/06/01 11:07:40;;;;;;;7.47;4.00;;;24.20;86.30;24.30;99868;;;;595315;241;23126;-77
2022/06/01 11:10:26;;;;;;;4.83;3.63;;;24.80;84.90;24.70;99864;;;;595125;241;24094;-79
2022/06/01 11:13:05;;;;;;;6.83;3.17;;;25.20;84.00;24.60;99861;;;;594349;237;23101;-76
2022/06/01 11:15:36;;;;;;;4.50;3.60;;;25.20;82.10;24.30;99865;;;;594478;241;23141;-77
2022/06/01 11:18:40;;;;;;;4.47;3.53;;;25.00;81.70;24.10;99856;;;;594061;238;23099;-76
2022/06/01 11:21:29;;;;;;;4.00;3.70;;;24.80;82.60;23.70;99861;;;;594914;241;23091;-80
2022/06/01 11:24:03;;;;;;;5.10;3.60;;;24.40;83.70;23.30;99861;;;;594662;241;24106;-76
2022/06/01 11:27:03;;;;;;;4.77;3.57;;;24.00;85.10;22.90;99869;;;;594384;237;24107;-79
2022/06/01 11:29:59;;;;;;;4.30;3.50;;;23.20;87.50;22.60;99857;;;;594583;237;24082;-81
2022/06/01 11:32:36;;;;;;;13.83;4.47;;;23.10;89.00;22.60;99863;;;;594665;241;24102;-78
2022/06/01 11:35:15;;;;;;;4.40;4.10;;;23.10;88.00;22.80;99859;;;;593654;241;24088;-78
2022/06/01 11:37:52;;;;;;;4.80;3.93;;;23.20;88.40;23.00;99853;;;;594508;237;24092;-77
2022/06/01 11:40:37;;;;;;;5.40;4.30;;;23.50;88.00;23.00;99856;;;;594307;241;26255;-76
2022/06/01 11:43:14;;;;;;;7.20;4.13;;;23.60;87.90;22.60;99858;;;;594158;241;24066;-80
2022/06/01 11:45:45;;;;;;;5.77;4.23;;;23.40;87.00;22.40;99853;;;;594298;241;24120;-76
2022/06/01 11:48:12;;;;;;;6.10;4.67;;;23.10;88.20;22.40;99852;;;;593984;237;24063;-77
2022/06/01 11:50:56;;;;;;;6.50;4.27;;;23.10;89.50;22.40;99840;;;;593978;241;24073;-79
2022/06/01 11:54:14;;;;;;;8.20;5.70;;;23.00;89.30;22.10;99839;;;;589228;241;35100;-78
2022/06/01 11:57:01;;;;;;;6.23;5.40;;;22.30;90.30;21.50;99852;;;;594789;241;24085;-79
2022/06/01 11:59:32;;;;;;;7.70;5.30;;;22.20;90.20;21.00;99843;;;;592736;237;24068;-80
2022/06/01 12:02:40;;;;;;;7.00;5.80;;;21.70;91.00;20.40;99839;;;;594053;241;24085;-79